createdAt,value
2017-10-19T00:00:02.728Z,1011.79
2017-10-19T00:05:03.536Z,1011.78
2017-10-19T00:10:03.166Z,1011.74
2017-10-19T00:15:03.621Z,1011.76
2017-10-19T00:20:03.078Z,1011.88
2017-10-19T00:25:03.522Z,1011.88
2017-10-19T00:30:02.964Z,1011.89
2017-10-19T00:35:03.581Z,1011.95
2017-10-19T00:40:03.046Z,1011.97
2017-10-19T00:45:03.488Z,1011.94
2017-10-19T00:50:02.948Z,1011.96
2017-10-19T00:55:03.553Z,1011.81
2017-10-19T01:00:02.971Z,1011.88
2017-10-19T01:05:03.567Z,1011.86
2017-10-19T01:10:03.083Z,1011.83
2017-10-19T01:15:03.621Z,1011.82
2017-10-19T01:20:03.277Z,1011.77
2017-10-19T01:25:02.755Z,1011.76
2017-10-19T01:30:03.246Z,1011.75
2017-10-19T01:35:02.795Z,1011.82
2017-10-19T01:40:03.398Z,1011.8
2017-10-19T01:45:02.847Z,1011.74
2017-10-19T01:50:03.466Z,1011.82
2017-10-19T01:55:02.935Z,1011.82
2017-10-19T02:00:03.396Z,1011.84
2017-10-19T02:05:02.788Z,1011.8
2017-10-19T02:10:03.278Z,1011.74
2017-10-19T02:15:02.864Z,1011.74
2017-10-19T02:20:03.506Z,1011.66
2017-10-19T02:25:02.861Z,1011.57
2017-10-19T02:30:03.311Z,1011.63
2017-10-19T02:35:02.759Z,1011.55
2017-10-19T02:40:03.304Z,1011.53
2017-10-19T02:45:02.873Z,1011.47
2017-10-19T02:50:03.395Z,1011.38
2017-10-19T02:55:02.951Z,1011.27
2017-10-19T03:00:03.374Z,1011.17
2017-10-19T03:05:02.916Z,1011.35
2017-10-19T03:10:03.636Z,1011.65
2017-10-19T03:15:03.209Z,1011.63
2017-10-19T03:20:02.751Z,1011.59
2017-10-19T03:25:03.182Z,1011.64
2017-10-19T03:30:02.647Z,1011.63
2017-10-19T03:35:03.311Z,1011.58
2017-10-19T03:40:02.987Z,1011.63
2017-10-19T03:45:03.578Z,1011.55
2017-10-19T03:50:03.115Z,1011.63
2017-10-19T03:55:02.700Z,1011.57
2017-10-19T04:00:03.220Z,1011.48
2017-10-19T04:05:02.839Z,1011.43
2017-10-19T04:10:03.374Z,1011.35
2017-10-19T04:15:02.816Z,1011.37
2017-10-19T04:20:03.366Z,1011.33
2017-10-19T04:25:02.969Z,1011.27
2017-10-19T04:30:03.357Z,1011.2
2017-10-19T04:35:02.798Z,1011.2
2017-10-19T04:40:03.263Z,1011.23
2017-10-19T04:45:02.828Z,1011.13
2017-10-19T04:50:03.412Z,1011.13
2017-10-19T04:55:02.916Z,1011.14
2017-10-19T05:00:03.392Z,1011.11
2017-10-19T05:05:02.905Z,1011.07
2017-10-19T05:10:03.504Z,1011.07
2017-10-19T05:15:03.102Z,1011.01
2017-10-19T05:20:02.628Z,1010.93
2017-10-19T05:25:03.067Z,1010.86
2017-10-19T05:30:03.532Z,1010.91
2017-10-19T05:35:03.086Z,1010.96
2017-10-19T05:40:02.751Z,1010.91
2017-10-19T05:45:03.405Z,1010.92
2017-10-19T05:50:02.944Z,1010.9
2017-10-19T05:55:03.580Z,1010.95
2017-10-19T06:00:03.021Z,1011.02
2017-10-19T06:05:03.430Z,1011.02
2017-10-19T06:10:02.894Z,1011.04
2017-10-19T06:15:03.355Z,1011
2017-10-19T06:20:02.912Z,1010.97
2017-10-19T06:25:03.463Z,1010.98
2017-10-19T06:30:03.000Z,1010.98
2017-10-19T06:35:03.471Z,1011.03
2017-10-19T06:40:03.099Z,1011.06
2017-10-19T06:45:03.483Z,1011.06
2017-10-19T06:50:02.912Z,1011.06
2017-10-19T06:55:03.475Z,1011.13
2017-10-19T07:00:02.944Z,1011.15
2017-10-19T07:05:03.410Z,1011.13
2017-10-19T07:10:02.830Z,1011.2
2017-10-19T07:15:03.436Z,1011.35
2017-10-19T07:20:02.909Z,1011.39
2017-10-19T07:25:03.487Z,1011.4
2017-10-19T07:30:03.103Z,1011.41
2017-10-19T07:35:03.546Z,1011.34
2017-10-19T07:40:03.014Z,1011.32
2017-10-19T07:45:03.537Z,1011.31
2017-10-19T07:50:03.064Z,1011.29
2017-10-19T07:55:03.602Z,1011.24
2017-10-19T08:00:03.168Z,1011.23
2017-10-19T08:05:03.590Z,1011.27
2017-10-19T08:10:03.223Z,1011.28
2017-10-19T08:15:02.763Z,1011.27
2017-10-19T08:20:03.235Z,1011.25
2017-10-19T08:25:02.753Z,1011.26
2017-10-19T08:30:03.431Z,1011.26
2017-10-19T08:35:02.887Z,1011.35
2017-10-19T08:40:03.494Z,1011.27
2017-10-19T08:45:02.957Z,1011.33
2017-10-19T08:50:02.651Z,1011.36
2017-10-19T08:55:03.066Z,1011.33
2017-10-19T09:00:02.705Z,1011.33
2017-10-19T09:05:03.377Z,1011.32
2017-10-19T09:10:02.926Z,1011.25
2017-10-19T09:15:03.468Z,1011.24
2017-10-19T09:20:03.074Z,1011.24
2017-10-19T09:25:03.764Z,1011.19
2017-10-19T09:30:03.342Z,1011.18
2017-10-19T09:35:02.772Z,1011.18
2017-10-19T09:40:03.343Z,1011.24
2017-10-19T09:45:02.859Z,1011.04
2017-10-19T09:50:03.291Z,1011.03
2017-10-19T09:55:02.843Z,1011
2017-10-19T10:00:03.442Z,1010.95
2017-10-19T10:05:03.085Z,1011.09
2017-10-19T10:10:03.596Z,1011.11
2017-10-19T10:15:03.050Z,1011.09
2017-10-19T10:20:03.576Z,1011.16
2017-10-19T10:25:03.184Z,1011.1
2017-10-19T10:30:03.647Z,1011.02
2017-10-19T10:35:03.067Z,1011.06
2017-10-19T10:40:02.681Z,1010.97
2017-10-19T10:45:03.306Z,1010.89
2017-10-19T10:50:02.885Z,1010.82
2017-10-19T10:55:03.403Z,1010.67
2017-10-19T11:00:02.880Z,1010.61
2017-10-19T11:05:03.514Z,1010.48
2017-10-19T11:10:03.174Z,1010.34
2017-10-19T11:15:02.746Z,1010.34
2017-10-19T11:20:03.425Z,1010.27
2017-10-19T11:25:02.997Z,1010.19
2017-10-19T11:30:03.468Z,1010.06
2017-10-19T11:35:03.259Z,1009.96
2017-10-19T11:40:02.781Z,1009.83
2017-10-19T11:45:03.409Z,1009.84
2017-10-19T11:50:02.938Z,1009.82
2017-10-19T11:55:03.522Z,1009.8
2017-10-19T12:00:03.127Z,1009.73
2017-10-19T12:05:03.589Z,1009.62
2017-10-19T12:10:03.276Z,1009.65
2017-10-19T12:15:02.859Z,1009.61
2017-10-19T12:20:03.481Z,1009.5
2017-10-19T12:25:03.088Z,1009.44
2017-10-19T12:30:02.709Z,1009.28
2017-10-19T12:35:03.466Z,1009.3
2017-10-19T12:40:03.009Z,1009.29
2017-10-19T12:45:03.588Z,1009.25
2017-10-19T12:50:03.153Z,1009.12
2017-10-19T12:55:03.552Z,1008.98
2017-10-19T13:00:02.964Z,1009.02
2017-10-19T13:05:02.646Z,1008.9
2017-10-19T13:10:03.220Z,1008.97
2017-10-19T13:15:02.836Z,1008.99
2017-10-19T13:20:03.330Z,1008.81
2017-10-19T13:25:02.943Z,1008.56
2017-10-19T13:30:03.568Z,1008.7
2017-10-19T13:35:03.007Z,1008.71
2017-10-19T13:40:03.514Z,1008.59
2017-10-19T13:45:02.929Z,1008.47
2017-10-19T13:50:03.545Z,1008.45
2017-10-19T13:55:03.069Z,1008.41
2017-10-19T14:00:03.478Z,1008.51
2017-10-19T14:05:03.091Z,1008.28
2017-10-19T14:10:02.741Z,1008.37
2017-10-19T14:15:03.339Z,1008.41
2017-10-19T14:20:02.996Z,1008.42
2017-10-19T14:25:03.594Z,1008.45
2017-10-19T14:30:03.021Z,1008.31
2017-10-19T14:35:03.628Z,1008.27
2017-10-19T14:40:03.230Z,1008.25
2017-10-19T14:45:02.803Z,1008.29
2017-10-19T14:50:03.311Z,1008.24
2017-10-19T14:55:02.850Z,1008.33
2017-10-19T15:00:03.339Z,1008.36
2017-10-19T15:05:02.884Z,1008.34
2017-10-19T15:10:03.421Z,1008.25
2017-10-19T15:15:03.005Z,1008.22
2017-10-19T15:20:03.634Z,1008.19
2017-10-19T15:25:03.234Z,1008.22
2017-10-19T15:30:02.865Z,1008.29
2017-10-19T15:35:03.303Z,1008.23
2017-10-19T15:40:02.806Z,1008.15
2017-10-19T15:45:03.428Z,1008.13
2017-10-19T15:50:02.919Z,1008.15
2017-10-19T15:55:03.398Z,1008.17
2017-10-19T16:00:02.901Z,1008.17
2017-10-19T16:05:03.517Z,1008.18
2017-10-19T16:10:03.096Z,1008.2
2017-10-19T16:15:03.636Z,1008.2
2017-10-19T16:20:03.081Z,1008.23
2017-10-19T16:25:03.474Z,1008.23
2017-10-19T16:30:03.096Z,1008.21
2017-10-19T16:35:03.662Z,1008.24
2017-10-19T16:40:03.183Z,1008.24
2017-10-19T16:45:02.823Z,1008.21
2017-10-19T16:50:03.338Z,1008.16
2017-10-19T16:55:02.729Z,1008.25
2017-10-19T17:00:03.365Z,1008.3
2017-10-19T17:05:02.914Z,1008.25
2017-10-19T17:10:03.586Z,1008.27
2017-10-19T17:15:03.049Z,1008.35
2017-10-19T17:20:03.630Z,1008.33
2017-10-19T17:25:03.044Z,1008.32
2017-10-19T17:30:03.503Z,1008.42
2017-10-19T17:35:03.038Z,1008.41
2017-10-19T17:40:02.765Z,1008.4
2017-10-19T17:45:03.236Z,1008.54
2017-10-19T17:50:02.744Z,1008.52
2017-10-19T17:55:03.241Z,1008.57
2017-10-19T18:00:02.856Z,1008.66
2017-10-19T18:05:03.353Z,1008.71
2017-10-19T18:10:02.900Z,1008.71
2017-10-19T18:15:03.365Z,1008.7
2017-10-19T18:20:02.969Z,1008.66
2017-10-19T18:25:03.400Z,1008.65
2017-10-19T18:30:02.847Z,1008.54
2017-10-19T18:35:03.338Z,1008.54
2017-10-19T18:40:02.828Z,1008.55
2017-10-19T18:50:02.915Z,1008.29
2017-10-19T18:55:03.486Z,1008.36
2017-10-19T19:00:03.083Z,1008.33
2017-10-19T19:05:03.552Z,1008.29
2017-10-19T19:10:03.121Z,1008.26
2017-10-19T19:15:02.642Z,1008.23
2017-10-19T19:20:03.373Z,1008.22
2017-10-19T19:25:02.837Z,1008.15
2017-10-19T19:30:03.409Z,1008.19
2017-10-19T19:35:02.802Z,1008.21
2017-10-19T19:40:03.381Z,1008.21
2017-10-19T19:45:02.888Z,1008.18
2017-10-19T19:50:03.356Z,1008.19
2017-10-19T19:55:02.789Z,1008.16
2017-10-19T20:00:03.245Z,1008.17
2017-10-19T20:05:02.816Z,1008.22
2017-10-19T20:10:03.281Z,1008.17
2017-10-19T20:15:02.837Z,1008.18
2017-10-19T20:20:03.435Z,1008.19
2017-10-19T20:25:02.900Z,1008.23
2017-10-19T20:30:03.696Z,1008.14
2017-10-19T20:35:03.308Z,1008.25
2017-10-19T20:40:02.803Z,1008.18
2017-10-19T20:45:03.292Z,1008.15
2017-10-19T20:50:02.701Z,1008.12
2017-10-19T20:55:03.194Z,1008.15
2017-10-19T21:00:02.662Z,1008.08
2017-10-19T21:05:03.082Z,1008.02
2017-10-19T21:10:03.497Z,1007.96
2017-10-19T21:15:03.074Z,1007.99
2017-10-19T21:20:03.516Z,1008.03
2017-10-19T21:25:03.017Z,1007.99
2017-10-19T21:30:03.742Z,1007.9
2017-10-19T21:35:03.188Z,1007.93
2017-10-19T21:40:02.826Z,1007.9
2017-10-19T21:45:03.311Z,1007.92
2017-10-19T21:50:02.828Z,1007.96
2017-10-19T21:55:03.340Z,1007.9
2017-10-19T22:00:02.964Z,1007.79
2017-10-19T22:05:03.456Z,1007.77
2017-10-19T22:10:03.049Z,1007.81
2017-10-19T22:15:03.604Z,1007.73
2017-10-19T22:20:03.018Z,1007.75
2017-10-19T22:25:03.580Z,1007.63
2017-10-19T22:30:03.011Z,1007.55
2017-10-19T22:35:03.609Z,1007.66
2017-10-19T22:40:03.311Z,1007.63
2017-10-19T22:45:02.803Z,1007.56
2017-10-19T22:50:03.444Z,1007.52
2017-10-19T22:55:02.839Z,1007.6
2017-10-19T23:00:04.131Z,1007.53
2017-10-19T23:05:03.507Z,1007.63
2017-10-19T23:10:03.136Z,1007.48
2017-10-19T23:15:03.618Z,1007.54
2017-10-19T23:20:03.188Z,1007.66
2017-10-19T23:25:02.785Z,1007.6
2017-10-19T23:30:03.356Z,1007.61
2017-10-19T23:35:03.041Z,1007.58
2017-10-19T23:40:03.652Z,1007.6
2017-10-19T23:45:03.108Z,1007.69
2017-10-19T23:50:02.725Z,1007.66
2017-10-19T23:55:03.345Z,1007.74
